Plain View, Iowa
Current Conditions -  °F | °C
As of 9:52 AM on Friday 21 Nov 2014 (Local Time) from KDVN Reporting Station
Clear Clear  
Wind Chill: 10°   Ceiling: Unl
Heat Index: 22°   Visibility: 10mi
Dew Point:   Wind: 13mph
Humidity: 51%   Direction: 160°SSE
Pressure: 30.4"   Gusts: NA
Location:  41.6175°N, 90.7599°W
Report Text: KDVN 211552Z AUTO 16011KT 10SM CLR M06/M14 A3040 RMK AO2 SLP309 T10561144
Loading
Personal Weather Stations






























Interactive Weather Map New forecast layout! Learn more

10-Day Weather Forecast

Advertisements
Track Severe Weather on mobile